createdAt,value
2018-04-25T00:02:59.577Z,76.00
2018-04-25T00:08:03.819Z,76.80
2018-04-25T00:13:07.297Z,76.10
2018-04-25T00:18:10.785Z,76.10
2018-04-25T00:23:14.670Z,76.00
2018-04-25T00:28:17.762Z,75.90
2018-04-25T00:33:20.866Z,75.60
2018-04-25T00:38:23.945Z,76.00
2018-04-25T00:53:36.673Z,76.10
2018-04-25T01:03:44.570Z,75.80
2018-04-25T01:08:48.453Z,75.70
2018-04-25T01:13:51.582Z,75.80
2018-04-25T01:23:59.489Z,75.10
2018-04-25T01:29:03.392Z,75.20
2018-04-25T01:40:07.809Z,75.20
2018-04-25T01:51:32.180Z,74.60
2018-04-25T01:56:53.166Z,74.40
2018-04-25T02:01:55.886Z,74.30
2018-04-25T02:06:59.746Z,74.90
2018-04-25T02:12:03.590Z,74.20
2018-04-25T02:17:07.438Z,74.30
2018-04-25T02:27:15.710Z,74.60
2018-04-25T02:32:18.818Z,74.70
2018-04-25T02:42:26.334Z,75.00
2018-04-25T02:47:30.203Z,74.60
2018-04-25T02:52:34.414Z,75.10
2018-04-25T02:57:38.648Z,75.50
2018-04-25T03:02:43.238Z,75.50
2018-04-25T03:07:46.324Z,75.10
2018-04-25T03:12:50.528Z,75.10
2018-04-25T03:17:53.640Z,75.20
2018-04-25T03:22:57.489Z,75.40
2018-04-25T03:28:01.743Z,75.40
2018-04-25T03:38:09.258Z,75.70
2018-04-25T03:48:16.781Z,76.00
2018-04-25T03:53:19.879Z,76.20
2018-04-25T03:58:23.009Z,76.60
2018-04-25T04:03:26.848Z,76.60
2018-04-25T04:08:32.012Z,76.50
2018-04-25T04:13:36.263Z,76.50
2018-04-25T04:18:40.115Z,76.50
2018-04-25T04:23:43.201Z,76.70
2018-04-25T04:28:46.299Z,76.60
2018-04-25T04:33:49.392Z,76.80
2018-04-25T04:49:01.752Z,76.90
2018-04-25T04:54:04.842Z,77.40
2018-04-25T04:59:08.710Z,77.70
2018-04-25T05:04:12.951Z,77.90
2018-04-25T05:09:17.595Z,78.00
2018-04-25T05:19:26.631Z,78.20
2018-04-25T05:24:31.287Z,78.50
2018-04-25T05:39:44.016Z,78.90
2018-04-25T05:44:47.104Z,78.80
2018-04-25T05:49:50.211Z,79.20
2018-04-25T05:59:58.885Z,79.00
2018-04-25T06:05:01.979Z,80.00
2018-04-25T06:15:09.910Z,80.30
2018-04-25T06:20:13.011Z,80.90
2018-04-25T06:25:16.867Z,81.60
2018-04-25T06:30:19.943Z,81.00
2018-04-25T06:35:23.933Z,80.80
2018-04-25T06:40:26.956Z,79.50
2018-04-25T06:45:31.196Z,79.30
2018-04-25T07:00:43.174Z,79.20
2018-04-25T07:05:47.056Z,78.40
2018-04-25T07:15:54.991Z,79.00
2018-04-25T07:20:58.099Z,82.00
2018-04-25T07:26:01.186Z,84.50
2018-04-25T07:36:09.119Z,84.60
2018-04-25T07:46:16.682Z,84.10
2018-04-25T07:51:20.191Z,83.20
2018-04-25T07:56:24.052Z,83.60
2018-04-25T08:01:27.148Z,81.90
2018-04-25T08:11:35.108Z,87.20
2018-04-25T08:16:56.028Z,88.50
2018-04-25T08:22:00.276Z,91.10
2018-04-25T08:27:03.368Z,92.00
2018-04-25T08:32:06.460Z,92.30
2018-04-25T08:37:10.327Z,92.90
2018-04-25T08:42:13.824Z,92.60
2018-04-25T08:47:16.919Z,92.70
2018-04-25T08:52:21.524Z,92.50
2018-04-25T08:57:25.397Z,92.50
2018-04-25T09:07:33.704Z,90.20
2018-04-25T09:17:41.647Z,88.70
2018-04-25T09:22:45.500Z,89.30
2018-04-25T09:43:01.969Z,83.10
2018-04-25T09:48:05.832Z,83.70
2018-04-25T10:08:26.645Z,75.80
2018-04-25T10:18:34.971Z,76.20
2018-04-25T10:23:39.568Z,76.70
2018-04-25T10:28:42.655Z,73.50
2018-04-25T10:33:45.782Z,71.30
2018-04-25T10:59:07.078Z,66.50
2018-04-25T11:04:10.165Z,67.10
2018-04-25T11:14:19.234Z,68.60
2018-04-25T11:29:32.376Z,72.40
2018-04-25T11:34:35.471Z,71.20
2018-04-25T11:39:38.628Z,71.40
2018-04-25T11:44:41.731Z,71.60
2018-04-25T11:54:49.675Z,69.70
2018-04-25T11:59:53.167Z,69.80
2018-04-25T12:04:56.692Z,70.80
2018-04-25T12:10:00.147Z,67.90
2018-04-25T12:15:03.252Z,68.40
2018-04-25T12:20:06.351Z,67.80
2018-04-25T12:25:09.533Z,65.80
2018-04-25T12:30:12.564Z,65.80
2018-04-25T12:40:20.931Z,62.10
2018-04-25T12:50:29.976Z,62.20
2018-04-25T13:05:42.355Z,60.70
2018-04-25T13:31:03.249Z,60.10
2018-04-25T13:36:06.755Z,59.40
2018-04-25T13:56:24.699Z,58.40
2018-04-25T14:01:27.788Z,58.40
2018-04-25T14:21:45.728Z,56.60
2018-04-25T14:36:58.471Z,57.40
2018-04-25T14:42:02.704Z,56.90
2018-04-25T15:04:44.166Z,59.30
2018-04-25T15:09:48.415Z,59.90
2018-04-25T15:14:52.652Z,59.50
2018-04-25T15:19:56.512Z,60.00
2018-04-25T15:25:00.719Z,59.80
2018-04-25T15:30:04.946Z,58.10
2018-04-25T15:35:08.796Z,58.30
2018-04-25T15:40:11.876Z,59.40
2018-04-25T15:45:16.459Z,58.20
2018-04-25T15:50:20.307Z,58.40
2018-04-25T15:55:24.535Z,54.30
2018-04-25T16:00:27.617Z,54.00
2018-04-25T16:05:30.700Z,53.10
2018-04-25T16:15:38.734Z,55.10
2018-04-25T16:25:47.032Z,56.30
2018-04-25T16:30:50.944Z,55.70
2018-04-25T16:51:08.433Z,52.70
2018-04-25T16:56:11.585Z,57.10
2018-04-25T17:01:14.672Z,57.80
2018-04-25T17:16:26.628Z,56.60
2018-04-25T17:31:39.003Z,57.50
2018-04-25T17:36:42.171Z,56.50
2018-04-25T17:46:51.119Z,56.50
2018-04-25T17:51:54.206Z,57.50
2018-04-25T17:56:58.054Z,58.60
2018-04-25T18:02:02.277Z,57.00
2018-04-25T18:07:05.382Z,56.90
2018-04-25T18:12:08.471Z,57.80
2018-04-25T18:17:11.647Z,57.60
2018-04-25T18:27:20.615Z,58.70
2018-04-25T18:42:32.948Z,62.20
2018-04-25T18:47:36.044Z,63.10
2018-04-25T18:52:39.525Z,63.40
2018-04-25T18:57:44.154Z,64.30
2018-04-25T19:02:48.365Z,66.20
2018-04-25T19:07:51.472Z,66.20
2018-04-25T19:18:00.490Z,64.60
2018-04-25T19:23:03.569Z,63.00
2018-04-25T19:28:07.855Z,62.70
2018-04-25T19:38:16.880Z,62.90
2018-04-25T19:43:19.962Z,64.10
2018-04-25T19:48:23.059Z,63.60
2018-04-25T19:53:26.915Z,65.00
2018-04-25T20:03:34.420Z,65.50
2018-04-25T20:08:38.266Z,67.00
2018-04-25T20:13:41.750Z,67.00
2018-04-25T20:18:45.643Z,66.30
2018-04-25T20:23:48.725Z,65.00
2018-04-25T20:28:51.807Z,61.70
2018-04-25T20:33:56.023Z,59.70
2018-04-25T20:38:59.102Z,57.00
2018-04-25T20:44:02.955Z,56.00
2018-04-25T20:49:07.182Z,55.60
2018-04-25T20:54:10.281Z,55.50
2018-04-25T21:04:18.241Z,56.00
2018-04-25T21:09:21.326Z,55.40
2018-04-25T21:14:25.188Z,56.10
2018-04-25T21:19:28.275Z,55.90
2018-04-25T21:24:32.513Z,56.30
2018-04-25T21:29:36.353Z,57.00
2018-04-25T21:34:40.223Z,56.80
2018-04-25T21:39:44.074Z,57.40
2018-04-25T21:44:47.166Z,57.60
2018-04-25T21:54:54.701Z,58.60
2018-04-25T21:59:58.551Z,58.50
2018-04-25T22:05:02.052Z,59.30
2018-04-25T22:10:06.278Z,59.80
2018-04-25T22:20:14.214Z,61.40
2018-04-25T22:25:18.806Z,61.40
2018-04-25T22:40:32.282Z,62.50
2018-04-25T22:45:36.134Z,62.90
2018-04-25T22:50:39.995Z,63.60
2018-04-25T22:55:44.218Z,64.50
2018-04-25T23:00:48.078Z,64.90
2018-04-25T23:05:51.570Z,65.30
2018-04-25T23:16:00.610Z,66.80
2018-04-25T23:21:03.694Z,66.60
2018-04-25T23:26:07.555Z,66.60
2018-04-25T23:31:10.647Z,66.00
2018-04-25T23:36:13.739Z,65.60
2018-04-25T23:41:17.207Z,65.10
2018-04-25T23:51:24.724Z,64.60
2018-04-25T23:56:27.830Z,64.60
